createdAt,value
2023-03-04T00:00:32.449Z,2.06
2023-03-04T00:01:32.803Z,2.08
2023-03-04T00:02:33.060Z,2.08
2023-03-04T00:03:33.256Z,2.08
2023-03-04T00:04:33.595Z,2.08
2023-03-04T00:05:33.914Z,2.08
2023-03-04T00:06:34.268Z,2.09
2023-03-04T00:07:34.565Z,2.08
2023-03-04T00:08:34.859Z,2.08
2023-03-04T00:09:35.238Z,2.10
2023-03-04T00:10:35.555Z,2.09
2023-03-04T00:11:35.857Z,2.10
2023-03-04T00:12:36.135Z,2.12
2023-03-04T00:13:36.332Z,2.13
2023-03-04T00:14:36.588Z,2.13
2023-03-04T00:15:36.881Z,2.15
2023-03-04T00:16:37.304Z,2.13
2023-03-04T00:17:37.534Z,2.15
2023-03-04T00:18:37.737Z,2.15
2023-03-04T00:19:38.048Z,2.15
2023-03-04T00:20:38.377Z,2.15
2023-03-04T00:21:38.597Z,2.13
2023-03-04T00:22:38.990Z,2.13
2023-03-04T00:23:39.162Z,2.12
2023-03-04T00:24:39.543Z,2.10
2023-03-04T00:25:41.930Z,2.10
2023-03-04T00:26:40.134Z,2.10
2023-03-04T00:27:40.461Z,2.13
2023-03-04T00:28:40.760Z,2.13
2023-03-04T00:29:41.028Z,2.10
2023-03-04T00:30:41.315Z,2.12
2023-03-04T00:31:41.697Z,2.12
2023-03-04T00:32:42.085Z,2.12
2023-03-04T00:33:42.272Z,2.10
2023-03-04T00:34:42.535Z,2.09
2023-03-04T00:35:42.923Z,2.10
2023-03-04T00:36:43.116Z,2.12
2023-03-04T00:37:43.492Z,2.12
2023-03-04T00:38:43.820Z,2.12
2023-03-04T00:39:44.170Z,2.12
2023-03-04T00:40:44.382Z,2.12
2023-03-04T00:41:44.688Z,2.12
2023-03-04T00:42:44.944Z,2.12
2023-03-04T00:43:45.274Z,2.12
2023-03-04T00:44:45.637Z,2.13
2023-03-04T00:45:45.931Z,2.13
2023-03-04T00:46:46.106Z,2.13
2023-03-04T00:47:46.339Z,2.13
2023-03-04T00:48:46.676Z,2.12
2023-03-04T00:49:47.005Z,2.15
2023-03-04T00:50:47.223Z,2.13
2023-03-04T00:51:47.600Z,2.13
2023-03-04T00:52:47.913Z,2.15
2023-03-04T00:53:48.151Z,2.15
2023-03-04T00:54:48.383Z,2.13
2023-03-04T00:55:48.666Z,2.15
2023-03-04T00:56:49.044Z,2.15
2023-03-04T00:57:49.382Z,2.16
2023-03-04T00:58:49.703Z,2.16
2023-03-04T00:59:49.943Z,2.19
2023-03-04T01:00:50.247Z,2.19
2023-03-04T01:01:50.582Z,2.19
2023-03-04T01:02:50.910Z,2.19
2023-03-04T01:03:51.221Z,2.17
2023-03-04T01:04:51.548Z,2.19
2023-03-04T01:05:51.847Z,2.19
2023-03-04T01:06:52.066Z,2.17
2023-03-04T01:07:52.440Z,2.19
2023-03-04T01:08:52.771Z,2.20
2023-03-04T01:09:53.125Z,2.22
2023-03-04T01:10:53.332Z,2.20
2023-03-04T01:11:53.646Z,2.23
2023-03-04T01:12:53.893Z,2.22
2023-03-04T01:13:54.194Z,2.22
2023-03-04T01:14:54.515Z,2.26
2023-03-04T01:15:54.838Z,2.26
2023-03-04T01:16:55.239Z,2.27
2023-03-04T01:17:55.486Z,2.31
2023-03-04T01:18:55.721Z,2.33
2023-03-04T01:19:56.049Z,2.33
2023-03-04T01:20:56.378Z,2.35
2023-03-04T01:21:56.737Z,2.35
2023-03-04T01:22:56.965Z,2.35
2023-03-04T01:23:57.291Z,2.35
2023-03-04T01:24:57.584Z,2.37
2023-03-04T01:25:57.917Z,2.37
2023-03-04T01:26:58.301Z,2.38
2023-03-04T01:27:58.622Z,2.38
2023-03-04T01:28:58.879Z,2.40
2023-03-04T01:29:59.189Z,2.40
2023-03-04T01:30:59.466Z,2.38
2023-03-04T01:31:59.772Z,2.40
2023-03-04T01:32:59.996Z,2.40
2023-03-04T01:34:00.304Z,2.41
2023-03-04T01:35:00.634Z,2.44
2023-03-04T01:36:00.958Z,2.41
2023-03-04T01:37:01.288Z,2.45
2023-03-04T01:38:01.471Z,2.45
2023-03-04T01:39:01.722Z,2.48
2023-03-04T01:40:02.007Z,2.48
2023-03-04T01:41:02.354Z,2.51
2023-03-04T01:42:02.713Z,2.51
2023-03-04T01:43:02.903Z,2.49
2023-03-04T01:44:03.164Z,2.49
2023-03-04T01:45:03.491Z,2.49
2023-03-04T01:46:03.893Z,2.52
2023-03-04T01:47:04.104Z,2.51
2023-03-04T01:48:04.414Z,2.52
2023-03-04T01:49:04.789Z,2.56
2023-03-04T01:50:05.028Z,2.55
2023-03-04T01:51:05.238Z,2.58
2023-03-04T01:52:05.574Z,2.59
2023-03-04T01:53:05.884Z,2.59
2023-03-04T01:54:06.163Z,2.61
2023-03-04T01:55:06.349Z,2.61
2023-03-04T01:56:06.707Z,2.63
2023-03-04T01:57:07.045Z,2.63
2023-03-04T01:58:07.355Z,2.64
2023-03-04T01:59:07.671Z,2.66
2023-03-04T02:00:07.985Z,2.66
2023-03-04T02:01:08.275Z,2.67
2023-03-04T02:02:08.680Z,2.69
2023-03-04T02:03:08.852Z,2.70
2023-03-04T02:04:09.270Z,2.71
2023-03-04T02:05:09.416Z,2.71
2023-03-04T02:06:09.782Z,2.71
2023-03-04T02:07:10.087Z,2.73
2023-03-04T02:08:10.395Z,2.73
2023-03-04T02:09:10.696Z,2.74
2023-03-04T02:10:10.981Z,2.74
2023-03-04T02:11:11.255Z,2.74
2023-03-04T02:12:11.600Z,2.73
2023-03-04T02:13:11.915Z,2.73
2023-03-04T02:14:12.219Z,2.73
2023-03-04T02:15:12.515Z,2.71
2023-03-04T02:16:12.841Z,2.73
2023-03-04T02:17:13.170Z,2.73
2023-03-04T02:18:13.484Z,2.73
2023-03-04T02:19:13.778Z,2.73
2023-03-04T02:20:14.153Z,2.73
2023-03-04T02:21:14.497Z,2.76
2023-03-04T02:22:14.843Z,2.76
2023-03-04T02:23:15.153Z,2.77
2023-03-04T02:24:15.496Z,2.79
2023-03-04T02:25:15.811Z,2.79
2023-03-04T02:26:16.174Z,2.81
2023-03-04T02:27:16.483Z,2.82
2023-03-04T02:28:16.764Z,2.84
2023-03-04T02:29:17.134Z,2.87
2023-03-04T02:30:17.414Z,2.88
2023-03-04T02:31:17.770Z,2.89
2023-03-04T02:32:18.179Z,2.91
2023-03-04T02:33:18.444Z,2.92
2023-03-04T02:34:18.796Z,2.92
2023-03-04T02:35:19.134Z,2.92
2023-03-04T02:36:19.338Z,2.92
2023-03-04T02:37:19.682Z,2.92
2023-03-04T02:38:19.894Z,2.94
2023-03-04T02:39:20.194Z,2.92
2023-03-04T02:40:20.427Z,2.94
2023-03-04T02:41:20.752Z,2.97
2023-03-04T02:42:21.146Z,2.95
2023-03-04T02:43:21.364Z,2.98
2023-03-04T02:44:21.657Z,2.97
2023-03-04T02:45:21.958Z,2.97
2023-03-04T02:46:22.319Z,2.97
2023-03-04T02:47:22.524Z,2.97
2023-03-04T02:48:22.824Z,2.98
2023-03-04T02:49:23.149Z,2.98
2023-03-04T02:50:23.456Z,2.98
2023-03-04T02:51:23.763Z,3.00
2023-03-04T02:52:24.052Z,3.02
2023-03-04T02:53:24.447Z,3.00
2023-03-04T02:54:24.624Z,3.00
2023-03-04T02:55:24.938Z,3.03
2023-03-04T02:56:25.219Z,3.03
2023-03-04T02:57:25.567Z,3.05
2023-03-04T02:58:25.906Z,3.05
2023-03-04T02:59:26.184Z,3.07
2023-03-04T03:00:26.516Z,3.07
2023-03-04T03:01:26.887Z,3.06
2023-03-04T03:02:27.210Z,3.09
2023-03-04T03:03:27.494Z,3.07
2023-03-04T03:04:27.797Z,3.07
2023-03-04T03:05:28.085Z,3.07
2023-03-04T03:06:28.418Z,3.09
2023-03-04T03:07:28.765Z,3.09
2023-03-04T03:08:29.108Z,3.10
2023-03-04T03:09:29.444Z,3.09
2023-03-04T03:10:29.738Z,3.10
2023-03-04T03:11:30.067Z,3.10
2023-03-04T03:12:30.339Z,3.10
2023-03-04T03:13:30.730Z,3.12
2023-03-04T03:14:31.029Z,3.13
2023-03-04T03:15:31.348Z,3.13
2023-03-04T03:16:31.657Z,3.13
2023-03-04T03:17:31.989Z,3.13
2023-03-04T03:18:32.296Z,3.15
2023-03-04T03:19:32.607Z,3.16
2023-03-04T03:20:32.912Z,3.18
2023-03-04T03:21:33.230Z,3.18
2023-03-04T03:22:33.545Z,3.20
2023-03-04T03:23:33.908Z,3.20
2023-03-04T03:24:34.078Z,3.20
2023-03-04T03:25:34.463Z,3.20
2023-03-04T03:26:34.648Z,3.20
2023-03-04T03:27:34.936Z,3.21
2023-03-04T03:28:35.245Z,3.23
2023-03-04T03:29:35.572Z,3.23
2023-03-04T03:30:35.892Z,3.24
2023-03-04T03:31:36.264Z,3.24
2023-03-04T03:32:36.615Z,3.25
2023-03-04T03:33:36.790Z,3.24
2023-03-04T03:34:37.102Z,3.25
2023-03-04T03:35:37.424Z,3.25
2023-03-04T03:36:37.768Z,3.24
2023-03-04T03:37:37.963Z,3.25
2023-03-04T03:38:38.303Z,3.24
2023-03-04T03:39:38.612Z,3.24
2023-03-04T03:40:38.924Z,3.27
2023-03-04T03:41:39.238Z,3.25
2023-03-04T03:42:39.543Z,3.25
2023-03-04T03:43:39.851Z,3.25
2023-03-04T03:44:40.134Z,3.27
2023-03-04T03:45:40.512Z,3.28
2023-03-04T03:46:40.831Z,3.25
2023-03-04T03:47:41.103Z,3.27
2023-03-04T03:48:41.461Z,3.28
2023-03-04T03:49:41.791Z,3.30
2023-03-04T03:50:42.092Z,3.30
2023-03-04T03:51:42.394Z,3.31
2023-03-04T03:52:42.706Z,3.30
2023-03-04T03:53:43.076Z,3.31
2023-03-04T03:54:43.382Z,3.31
2023-03-04T03:55:43.674Z,3.33
2023-03-04T03:56:43.974Z,3.33
2023-03-04T03:57:44.337Z,3.34
2023-03-04T03:58:44.637Z,3.36
2023-03-04T03:59:44.946Z,3.36
2023-03-04T04:00:45.217Z,3.39
2023-03-04T04:01:45.588Z,3.39
2023-03-04T04:02:46.011Z,3.39
2023-03-04T04:03:46.229Z,3.42
2023-03-04T04:04:46.523Z,3.40
2023-03-04T04:05:46.800Z,3.43
2023-03-04T04:06:47.134Z,3.44
2023-03-04T04:07:47.489Z,3.44
2023-03-04T04:08:47.778Z,3.44
2023-03-04T04:09:48.130Z,3.46
2023-03-04T04:10:48.409Z,3.46
2023-03-04T04:11:48.727Z,3.46
2023-03-04T04:12:49.101Z,3.47
2023-03-04T04:13:49.403Z,3.46
2023-03-04T04:14:49.713Z,3.46
2023-03-04T04:15:50.019Z,3.47
2023-03-04T04:16:50.410Z,3.47
2023-03-04T04:17:50.588Z,3.49
2023-03-04T04:18:50.921Z,3.49
2023-03-04T04:19:51.280Z,3.47
2023-03-04T04:20:51.593Z,3.49
2023-03-04T04:21:51.898Z,3.49
2023-03-04T04:22:52.204Z,3.50
2023-03-04T04:23:52.468Z,3.50
2023-03-04T04:24:52.882Z,3.49
2023-03-04T04:25:53.098Z,3.50
2023-03-04T04:26:53.371Z,3.49
2023-03-04T04:27:53.724Z,3.49
2023-03-04T04:28:54.004Z,3.50
2023-03-04T04:29:54.355Z,3.50
2023-03-04T04:30:54.673Z,3.49
2023-03-04T04:31:55.029Z,3.49
2023-03-04T04:32:55.205Z,3.52
2023-03-04T04:33:55.489Z,3.50
2023-03-04T04:34:55.859Z,3.50
2023-03-04T04:35:56.239Z,3.53
2023-03-04T04:36:56.402Z,3.52
2023-03-04T04:37:56.763Z,3.52
2023-03-04T04:38:57.054Z,3.52
2023-03-04T04:39:57.422Z,3.50
2023-03-04T04:40:57.697Z,3.50
2023-03-04T04:41:58.039Z,3.50
2023-03-04T04:42:58.372Z,3.52
2023-03-04T04:43:58.694Z,3.52
2023-03-04T04:44:59.042Z,3.50
2023-03-04T04:45:59.408Z,3.53
2023-03-04T04:46:59.695Z,3.53
2023-03-04T04:48:00.045Z,3.52
2023-03-04T04:49:00.357Z,3.53
2023-03-04T04:50:00.980Z,3.54
2023-03-04T04:51:00.944Z,3.57
2023-03-04T04:52:01.310Z,3.57
2023-03-04T04:53:01.588Z,3.58
2023-03-04T04:54:01.927Z,3.58
2023-03-04T04:55:02.289Z,3.58
2023-03-04T04:56:02.441Z,3.58
2023-03-04T04:57:02.785Z,3.58
2023-03-04T04:58:03.109Z,3.60
2023-03-04T04:59:03.416Z,3.58
2023-03-04T05:00:03.662Z,3.61
2023-03-04T05:01:03.990Z,3.61
2023-03-04T05:02:04.214Z,3.61
2023-03-04T05:03:04.578Z,3.61
2023-03-04T05:04:04.764Z,3.60
2023-03-04T05:05:05.117Z,3.61
2023-03-04T05:06:05.336Z,3.62
2023-03-04T05:07:05.655Z,3.62
2023-03-04T05:08:06.021Z,3.61
2023-03-04T05:09:06.218Z,3.64
2023-03-04T05:10:06.543Z,3.64
2023-03-04T05:11:06.852Z,3.65
2023-03-04T05:12:07.098Z,3.65
2023-03-04T05:13:07.405Z,3.67
2023-03-04T05:14:07.728Z,3.67
2023-03-04T05:15:08.073Z,3.67
2023-03-04T05:16:08.343Z,3.68
2023-03-04T05:17:08.555Z,3.67
2023-03-04T05:18:08.844Z,3.68
2023-03-04T05:19:09.455Z,3.70
2023-03-04T05:20:09.544Z,3.70
2023-03-04T05:21:09.755Z,3.71
2023-03-04T05:22:10.049Z,3.72
2023-03-04T05:23:10.389Z,3.71
2023-03-04T05:24:10.740Z,3.72
2023-03-04T05:25:11.198Z,3.72
2023-03-04T05:26:11.409Z,3.72
2023-03-04T05:27:11.741Z,3.75
2023-03-04T05:28:12.041Z,3.75
2023-03-04T05:29:12.273Z,3.75
2023-03-04T05:30:12.639Z,3.76
2023-03-04T05:31:13.032Z,3.75
2023-03-04T05:32:13.331Z,3.76
2023-03-04T05:33:13.626Z,3.76
2023-03-04T05:34:13.962Z,3.75
2023-03-04T05:35:14.306Z,3.76
2023-03-04T05:36:14.525Z,3.78
2023-03-04T05:37:14.838Z,3.78
2023-03-04T05:38:15.197Z,3.78
2023-03-04T05:39:15.406Z,3.76
2023-03-04T05:40:15.756Z,3.76
2023-03-04T05:41:15.977Z,3.78
2023-03-04T05:42:16.186Z,3.76
2023-03-04T05:43:16.472Z,3.76
2023-03-04T05:44:16.801Z,3.75
2023-03-04T05:45:17.157Z,3.76
2023-03-04T05:46:17.525Z,3.78
2023-03-04T05:47:17.715Z,3.75
2023-03-04T05:48:18.068Z,3.76
2023-03-04T05:49:18.388Z,3.78
2023-03-04T05:50:18.715Z,3.76
2023-03-04T05:51:19.022Z,3.75
2023-03-04T05:52:19.351Z,3.78
2023-03-04T05:53:19.708Z,3.76
2023-03-04T05:54:20.052Z,3.78
2023-03-04T05:55:20.440Z,3.78
2023-03-04T05:56:20.756Z,3.79
2023-03-04T05:57:21.077Z,3.79
2023-03-04T05:58:21.441Z,3.80
2023-03-04T05:59:21.606Z,3.80
2023-03-04T06:00:21.985Z,3.82
2023-03-04T06:01:22.197Z,3.85
2023-03-04T06:02:22.616Z,3.85
2023-03-04T06:03:22.916Z,3.86
2023-03-04T06:04:23.066Z,3.88
2023-03-04T06:05:23.267Z,3.89
2023-03-04T06:06:23.599Z,3.89
2023-03-04T06:07:23.916Z,3.89
2023-03-04T06:08:24.240Z,3.92
2023-03-04T06:09:24.594Z,3.92
2023-03-04T06:10:24.959Z,3.92
2023-03-04T06:11:25.131Z,3.94
2023-03-04T06:12:25.474Z,3.94
2023-03-04T06:13:25.811Z,3.96
2023-03-04T06:14:26.199Z,3.96
2023-03-04T06:15:26.367Z,3.94
2023-03-04T06:16:26.739Z,3.94
2023-03-04T06:17:26.968Z,3.96
2023-03-04T06:18:27.352Z,3.96
2023-03-04T06:19:27.518Z,3.97
2023-03-04T06:20:27.821Z,3.97
2023-03-04T06:21:28.086Z,3.98
2023-03-04T06:22:28.391Z,4.00
2023-03-04T06:23:28.725Z,4.01
2023-03-04T06:24:28.992Z,4.03
2023-03-04T06:25:29.360Z,4.04
2023-03-04T06:26:29.666Z,4.03
2023-03-04T06:27:29.978Z,4.04
2023-03-04T06:28:30.346Z,4.07
2023-03-04T06:29:30.633Z,4.07
2023-03-04T06:30:30.994Z,4.07
2023-03-04T06:31:31.311Z,4.08
2023-03-04T06:32:31.659Z,4.08
2023-03-04T06:33:31.882Z,4.08
2023-03-04T06:34:43.761Z,4.08
2023-03-04T06:35:32.556Z,4.10
2023-03-04T06:36:32.892Z,4.12
2023-03-04T06:37:33.101Z,4.12
2023-03-04T06:38:33.441Z,4.10
2023-03-04T06:39:33.816Z,4.14
2023-03-04T06:40:34.013Z,4.14
2023-03-04T06:41:34.277Z,4.16
2023-03-04T06:42:34.607Z,4.18
2023-03-04T06:43:34.941Z,4.18
2023-03-04T06:44:35.294Z,4.19
2023-03-04T06:45:35.510Z,4.21
2023-03-04T06:46:35.935Z,4.19
2023-03-04T06:47:36.103Z,4.21
2023-03-04T06:48:36.330Z,4.22
2023-03-04T06:49:36.654Z,4.22
2023-03-04T06:50:37.018Z,4.24
2023-03-04T06:51:37.173Z,4.25
2023-03-04T06:52:37.415Z,4.24
2023-03-04T06:53:37.714Z,4.26
2023-03-04T06:54:38.058Z,4.26
2023-03-04T06:55:38.160Z,4.28
2023-03-04T06:56:38.410Z,4.28
2023-03-04T06:57:38.729Z,4.29
2023-03-04T06:58:39.058Z,4.32
2023-03-04T06:59:39.315Z,4.33
2023-03-04T07:00:39.629Z,4.33
2023-03-04T07:01:39.889Z,4.34
2023-03-04T07:02:40.127Z,4.36
2023-03-04T07:03:40.382Z,4.37
2023-03-04T07:04:40.654Z,4.40
2023-03-04T07:05:40.989Z,4.43
2023-03-04T07:06:41.227Z,4.46
2023-03-04T07:07:41.464Z,4.50
2023-03-04T07:08:41.834Z,4.55
2023-03-04T07:09:41.974Z,4.57
2023-03-04T07:10:42.191Z,4.62
2023-03-04T07:11:42.658Z,4.65
2023-03-04T07:12:42.875Z,4.69
2023-03-04T07:13:43.153Z,4.77
2023-03-04T07:14:43.423Z,4.83
2023-03-04T07:15:43.655Z,4.88
2023-03-04T07:16:44.123Z,4.89
2023-03-04T07:17:44.256Z,4.95
2023-03-04T07:18:44.404Z,5.02
2023-03-04T07:19:44.619Z,5.04
2023-03-04T07:20:44.950Z,5.04
2023-03-04T07:21:45.263Z,5.05
2023-03-04T07:22:45.491Z,5.09
2023-03-04T07:23:45.768Z,5.10
2023-03-04T07:24:46.145Z,5.10
2023-03-04T07:25:46.342Z,5.12
2023-03-04T07:26:46.626Z,5.12
2023-03-04T07:27:46.910Z,5.13
2023-03-04T07:28:47.202Z,5.14
2023-03-04T07:29:47.487Z,5.16
2023-03-04T07:30:47.777Z,5.14
2023-03-04T07:31:48.028Z,5.17
2023-03-04T07:32:48.392Z,5.19
2023-03-04T07:33:48.582Z,5.19
2023-03-04T07:34:48.921Z,5.20
2023-03-04T07:35:49.302Z,5.23
2023-03-04T07:36:49.517Z,5.23
2023-03-04T07:37:49.787Z,5.27
2023-03-04T07:38:50.044Z,5.27
2023-03-04T07:39:50.307Z,5.27
2023-03-04T07:40:50.586Z,5.28
2023-03-04T07:41:50.831Z,5.30
2023-03-04T07:42:51.072Z,5.30
2023-03-04T07:43:51.351Z,5.31
2023-03-04T07:44:51.665Z,5.31
2023-03-04T07:45:52.097Z,5.32
2023-03-04T07:46:52.200Z,5.32
2023-03-04T07:47:52.467Z,5.32
2023-03-04T07:48:52.719Z,5.34
2023-03-04T07:49:53.104Z,5.35
2023-03-04T07:50:53.533Z,5.35
2023-03-04T07:51:53.601Z,5.35
2023-03-04T07:52:53.817Z,5.35
2023-03-04T07:53:54.162Z,5.37
2023-03-04T07:54:54.560Z,5.40
2023-03-04T07:55:54.794Z,5.38
2023-03-04T07:56:55.022Z,5.38
2023-03-04T07:57:55.257Z,5.40
2023-03-04T07:58:55.677Z,5.40
2023-03-04T07:59:56.020Z,5.41
2023-03-04T08:00:56.295Z,5.40
2023-03-04T08:01:56.571Z,5.45
2023-03-04T08:02:56.839Z,5.45
2023-03-04T08:03:57.069Z,5.45
2023-03-04T08:04:57.379Z,5.46
2023-03-04T08:05:57.615Z,5.48
2023-03-04T08:06:57.961Z,5.48
2023-03-04T08:07:58.137Z,5.49
2023-03-04T08:08:58.403Z,5.48
2023-03-04T08:09:58.687Z,5.49
2023-03-04T08:10:58.992Z,5.50
2023-03-04T08:11:59.309Z,5.50
2023-03-04T08:12:59.598Z,5.50
2023-03-04T08:13:59.883Z,5.52
2023-03-04T08:15:00.148Z,5.52
2023-03-04T08:16:00.476Z,5.50
2023-03-04T08:17:00.727Z,5.52
2023-03-04T08:18:01.000Z,5.53
2023-03-04T08:19:01.300Z,5.53
2023-03-04T08:20:01.562Z,5.52
2023-03-04T08:21:01.922Z,5.53
2023-03-04T08:22:02.251Z,5.53
2023-03-04T08:23:02.576Z,5.55
2023-03-04T08:24:02.814Z,5.53
2023-03-04T08:25:03.105Z,5.55
2023-03-04T08:26:03.375Z,5.57
2023-03-04T08:27:03.721Z,5.57
2023-03-04T08:28:04.009Z,5.57
2023-03-04T08:29:04.201Z,5.59
2023-03-04T08:30:04.682Z,5.60
2023-03-04T08:31:05.007Z,5.60
2023-03-04T08:32:05.408Z,5.63
2023-03-04T08:33:05.585Z,5.64
2023-03-04T08:34:05.779Z,5.64
2023-03-04T08:35:06.171Z,5.66
2023-03-04T08:36:06.384Z,5.66
2023-03-04T08:37:06.746Z,5.68
2023-03-04T08:38:07.018Z,5.70
2023-03-04T08:39:07.356Z,5.71
2023-03-04T08:40:07.562Z,5.73
2023-03-04T08:41:07.822Z,5.74
2023-03-04T08:42:08.111Z,5.73
2023-03-04T08:43:08.391Z,5.73
2023-03-04T08:44:08.832Z,5.73
2023-03-04T08:45:08.907Z,5.75
2023-03-04T08:46:09.222Z,5.74
2023-03-04T08:47:09.552Z,5.74
2023-03-04T08:48:10.083Z,5.77
2023-03-04T08:49:10.099Z,5.75
2023-03-04T08:50:10.396Z,5.78
2023-03-04T08:51:10.725Z,5.81
2023-03-04T08:52:11.018Z,5.82
2023-03-04T08:53:11.327Z,5.83
2023-03-04T08:54:11.613Z,5.85
2023-03-04T08:55:11.890Z,5.86
2023-03-04T08:56:12.222Z,5.85
2023-03-04T08:57:12.438Z,5.88
2023-03-04T08:58:12.733Z,5.91
2023-03-04T08:59:13.000Z,5.91
2023-03-04T09:00:13.337Z,5.91
2023-03-04T09:01:13.703Z,5.93
2023-03-04T09:02:13.897Z,5.95
2023-03-04T09:03:14.205Z,6.00
2023-03-04T09:04:14.488Z,6.01
2023-03-04T09:05:14.706Z,6.03
2023-03-04T09:06:15.017Z,6.03
2023-03-04T09:07:15.256Z,6.04
2023-03-04T09:08:15.533Z,6.01
2023-03-04T09:09:15.780Z,6.01
2023-03-04T09:10:16.100Z,6.03
2023-03-04T09:11:16.531Z,6.04
2023-03-04T09:12:16.709Z,6.01
2023-03-04T09:13:17.135Z,6.01
2023-03-04T09:14:17.311Z,6.03
2023-03-04T09:15:17.720Z,6.03
2023-03-04T09:16:17.874Z,6.03
2023-03-04T09:17:18.304Z,6.06
2023-03-04T09:18:18.388Z,6.07
2023-03-04T09:19:18.708Z,6.09
2023-03-04T09:20:19.015Z,6.10
2023-03-04T09:21:19.300Z,6.10
2023-03-04T09:22:19.554Z,6.10
2023-03-04T09:23:19.892Z,6.10
2023-03-04T09:24:20.130Z,6.11
2023-03-04T09:25:20.451Z,6.11
2023-03-04T09:26:20.728Z,6.13
2023-03-04T09:27:21.009Z,6.14
2023-03-04T09:28:21.238Z,6.16
2023-03-04T09:29:21.708Z,6.22
2023-03-04T09:30:21.909Z,6.29
2023-03-04T09:31:22.244Z,6.33
2023-03-04T09:32:22.585Z,6.40
2023-03-04T09:33:22.804Z,6.41
2023-03-04T09:34:23.141Z,6.44
2023-03-04T09:35:23.425Z,6.46
2023-03-04T09:36:23.710Z,6.47
2023-03-04T09:37:24.018Z,6.48
2023-03-04T09:38:24.265Z,6.50
2023-03-04T09:39:24.678Z,6.51
2023-03-04T09:40:24.898Z,6.54
2023-03-04T09:41:25.023Z,6.53
2023-03-04T09:42:25.414Z,6.51
2023-03-04T09:43:25.600Z,6.51
2023-03-04T09:44:25.918Z,6.50
2023-03-04T09:45:26.212Z,6.50
2023-03-04T09:46:26.604Z,6.51
2023-03-04T09:47:26.813Z,6.56
2023-03-04T09:48:27.047Z,6.62
2023-03-04T09:49:27.214Z,6.65
2023-03-04T09:50:27.512Z,6.71
2023-03-04T09:51:27.867Z,6.79
2023-03-04T09:52:28.082Z,6.89
2023-03-04T09:53:28.478Z,6.99
2023-03-04T09:54:28.731Z,7.04
2023-03-04T09:55:29.249Z,7.05
2023-03-04T09:56:29.702Z,7.05
2023-03-04T09:57:29.501Z,7.12
2023-03-04T09:58:29.722Z,7.22
2023-03-04T09:59:30.066Z,7.34
2023-03-04T10:00:30.243Z,7.50
2023-03-04T10:01:30.481Z,7.75
2023-03-04T10:02:30.736Z,7.94
2023-03-04T10:03:31.024Z,8.04
2023-03-04T10:04:31.268Z,8.15
2023-03-04T10:05:31.512Z,8.25
2023-03-04T10:06:31.760Z,8.36
2023-03-04T10:07:32.088Z,8.57
2023-03-04T10:08:32.392Z,8.79
2023-03-04T10:09:32.628Z,8.90
2023-03-04T10:10:33.018Z,8.88
2023-03-04T10:11:33.087Z,8.94
2023-03-04T10:12:33.436Z,8.97
2023-03-04T10:13:33.710Z,9.09
2023-03-04T10:14:34.439Z,9.10
2023-03-04T10:15:34.346Z,9.06
2023-03-04T10:16:34.606Z,3.17
2023-03-04T10:17:34.989Z,2.86
2023-03-04T10:18:35.117Z,8.60
2023-03-04T10:19:35.479Z,-40.00
